Bonaparte, Iowa
Current Conditions -  °F | °C
As of 5:55 AM on Wednesday 28 Jan 2015 (Local Time) from KMPZ Reporting Station
Haze Haze  
Wind Chill: 19°   Ceiling: 900
Heat Index: 28°   Visibility: 5mi
Dew Point: 27°   Wind: 10mph
Humidity: 96%   Direction: 140°SE
Pressure: 30.18"   Gusts: NA
Location:  40.7°N, 91.8°W
Report Text: KMPZ 281155Z AUTO 14009KT 5SM BR BKN009 M02/M03 A3018 RMK AO2 T10211026 11015 21021
Loading
Personal Weather Stations






























Interactive Weather Map New forecast layout! Learn more

10-Day Weather Forecast

Advertisements
Track Severe Weather on mobile